Bookmark and Share
Track history (hours):
 

Just Believe

More information available from US FCC via Universal Licensing System and Coast Guard Vessel Documentation Center.

Last reported at 2014-Apr-10 20:33 UTC. Time now 2014-Apr-19 02:07 UTC.
Position N 26°13' W 079°27'.
Warning: this ship's position is 8 days out of date.

Length 18 m; draft 2 m.

Type: Pleasure craft. MMSI: 367376980.

NotesDate/timePositionNaut miles runAvg speedWind from/ knotsBaromVisibWave heightAir tempDewpointWater temp
2014-Apr-10 20:33N 26°13' W 079°27'7 6.8
2014-Apr-10 19:33N 26°12' W 079°35'7 6.9
2014-Apr-10 18:33N 26°10' W 079°42'7 7.0
2014-Apr-10 17:33N 26°08' W 079°49'7 7.2
2014-Apr-10 16:33N 26°06' W 079°57'7 7.0
2014-Apr-10 15:33N 26°06' W 080°05'2 2.1
2014-Apr-10 14:34N 26°06' W 080°07'0 0.0
2014-Apr-10 13:33N 26°06' W 080°07'2 2.2
2014-Apr-10 12:34N 26°06' W 080°10'1 1.1
2014-Apr-10 11:34N 26°05' W 080°10'  
2014-Apr-04 22:34N 26°05' W 080°10'0 0.0
2014-Apr-04 18:33N 26°05' W 080°10'0 0.0
2014-Apr-04 17:33N 26°05' W 080°10'0 0.0
2014-Apr-04 16:33N 26°05' W 080°10'0 0.0
2014-Apr-04 15:34N 26°05' W 080°10'0 0.0
2014-Apr-04 14:34N 26°05' W 080°10'0 0.0
2014-Apr-04 13:34N 26°05' W 080°10'0 0.0
2014-Apr-04 12:34N 26°05' W 080°10'0 0.0
2014-Apr-04 11:34N 26°05' W 080°10'0 0.0
2014-Apr-04 10:34N 26°05' W 080°10'0 0.0
2014-Apr-04 09:33N 26°05' W 080°10'0 0.0
2014-Apr-04 08:33N 26°05' W 080°10'0 0.0
2014-Apr-04 07:33N 26°05' W 080°10'0 0.0
2014-Apr-04 06:33N 26°05' W 080°10'0 0.0
2014-Apr-04 05:33N 26°05' W 080°10'0 0.0
2014-Apr-04 04:33N 26°05' W 080°10'0 0.0
2014-Apr-04 03:33N 26°05' W 080°10'0 0.0
2014-Apr-04 02:33N 26°05' W 080°10'0 0.0
2014-Apr-04 01:34N 26°05' W 080°10'0 0.0
2014-Apr-04 00:34N 26°05' W 080°10'0 0.0
2014-Apr-03 23:34N 26°05' W 080°10'0 0.0
2014-Apr-03 00:33N 26°05' W 080°10'0 0.0
2014-Apr-02 23:33N 26°05' W 080°10'0 0.0
2014-Apr-02 22:33N 26°05' W 080°10'0 0.0
2014-Apr-02 21:33N 26°05' W 080°10'0 0.0
2014-Apr-02 20:33N 26°05' W 080°10'0 0.0
2014-Apr-02 19:33N 26°05' W 080°10'0 0.0
2014-Apr-02 18:33N 26°05' W 080°10'0 0.0
2014-Apr-02 17:33N 26°05' W 080°10'0 0.0
2014-Apr-02 16:33N 26°05' W 080°10'  

Dump ship's entire track history

sailing weather and tide predictions

Just Believe — WDE6179 — position and weather